sensor_id;sensor_type;location;lat;lon;timestamp;P1;durP1;ratioP1;P2;durP2;ratioP2
64571;SDS011;51155;51.984;21.208;2023-09-12T00:02:20;16.30;;;11.90;;
64571;SDS011;51155;51.984;21.208;2023-09-12T00:04:52;15.30;;;12.30;;
64571;SDS011;51155;51.984;21.208;2023-09-12T00:07:23;14.20;;;12.30;;
64571;SDS011;51155;51.984;21.208;2023-09-12T00:09:55;14.70;;;12.40;;
64571;SDS011;51155;51.984;21.208;2023-09-12T00:12:27;16.40;;;13.30;;
64571;SDS011;51155;51.984;21.208;2023-09-12T00:14:59;15.60;;;12.00;;
64571;SDS011;51155;51.984;21.208;2023-09-12T00:17:31;15.40;;;12.70;;
64571;SDS011;51155;51.984;21.208;2023-09-12T00:20:03;13.40;;;11.50;;
64571;SDS011;51155;51.984;21.208;2023-09-12T00:22:37;14.00;;;12.50;;
64571;SDS011;51155;51.984;21.208;2023-09-12T00:25:09;15.10;;;12.60;;
64571;SDS011;51155;51.984;21.208;2023-09-12T00:27:41;14.50;;;12.40;;
64571;SDS011;51155;51.984;21.208;2023-09-12T00:30:14;12.70;;;11.00;;
64571;SDS011;51155;51.984;21.208;2023-09-12T00:32:46;13.70;;;11.80;;
64571;SDS011;51155;51.984;21.208;2023-09-12T00:35:18;17.30;;;11.90;;
64571;SDS011;51155;51.984;21.208;2023-09-12T00:37:49;12.80;;;11.40;;
64571;SDS011;51155;51.984;21.208;2023-09-12T00:40:21;15.40;;;12.20;;
64571;SDS011;51155;51.984;21.208;2023-09-12T00:42:53;13.80;;;12.00;;
64571;SDS011;51155;51.984;21.208;2023-09-12T00:45:25;14.50;;;12.40;;
64571;SDS011;51155;51.984;21.208;2023-09-12T00:47:58;14.90;;;12.30;;
64571;SDS011;51155;51.984;21.208;2023-09-12T00:50:30;13.10;;;11.70;;
64571;SDS011;51155;51.984;21.208;2023-09-12T00:53:03;14.70;;;12.20;;
64571;SDS011;51155;51.984;21.208;2023-09-12T00:55:36;13.90;;;12.40;;
64571;SDS011;51155;51.984;21.208;2023-09-12T00:58:08;13.30;;;11.80;;
64571;SDS011;51155;51.984;21.208;2023-09-12T01:00:41;14.50;;;11.90;;
64571;SDS011;51155;51.984;21.208;2023-09-12T01:03:13;14.40;;;12.20;;
64571;SDS011;51155;51.984;21.208;2023-09-12T01:05:45;14.80;;;12.00;;
64571;SDS011;51155;51.984;21.208;2023-09-12T01:08:17;15.30;;;11.80;;
64571;SDS011;51155;51.984;21.208;2023-09-12T01:10:49;13.80;;;11.80;;
64571;SDS011;51155;51.984;21.208;2023-09-12T01:13:23;14.10;;;12.40;;
64571;SDS011;51155;51.984;21.208;2023-09-12T01:15:54;16.80;;;12.10;;
64571;SDS011;51155;51.984;21.208;2023-09-12T01:18:26;14.70;;;12.20;;
64571;SDS011;51155;51.984;21.208;2023-09-12T01:26:55;15.00;;;10.90;;
64571;SDS011;51155;51.984;21.208;2023-09-12T01:29:28;14.00;;;11.00;;
64571;SDS011;51155;51.984;21.208;2023-09-12T01:32:02;13.20;;;11.30;;
64571;SDS011;51155;51.984;21.208;2023-09-12T01:34:34;13.80;;;11.90;;
64571;SDS011;51155;51.984;21.208;2023-09-12T01:37:06;13.10;;;11.20;;
64571;SDS011;51155;51.984;21.208;2023-09-12T01:39:38;13.20;;;11.80;;
64571;SDS011;51155;51.984;21.208;2023-09-12T01:42:13;13.40;;;11.90;;
64571;SDS011;51155;51.984;21.208;2023-09-12T01:44:47;12.40;;;10.60;;
64571;SDS011;51155;51.984;21.208;2023-09-12T01:47:20;14.10;;;11.80;;
64571;SDS011;51155;51.984;21.208;2023-09-12T01:52:25;12.90;;;11.20;;
64571;SDS011;51155;51.984;21.208;2023-09-12T01:57:30;13.20;;;10.30;;
64571;SDS011;51155;51.984;21.208;2023-09-12T02:00:02;13.30;;;11.50;;
64571;SDS011;51155;51.984;21.208;2023-09-12T02:02:35;12.50;;;11.20;;
64571;SDS011;51155;51.984;21.208;2023-09-12T02:05:18;14.00;;;11.50;;
64571;SDS011;51155;51.984;21.208;2023-09-12T02:07:51;15.50;;;11.10;;
64571;SDS011;51155;51.984;21.208;2023-09-12T02:10:22;14.40;;;11.10;;
64571;SDS011;51155;51.984;21.208;2023-09-12T02:12:54;13.50;;;11.60;;
64571;SDS011;51155;51.984;21.208;2023-09-12T02:15:26;13.80;;;11.20;;
64571;SDS011;51155;51.984;21.208;2023-09-12T02:17:57;12.70;;;11.10;;
64571;SDS011;51155;51.984;21.208;2023-09-12T02:20:29;12.50;;;10.90;;
64571;SDS011;51155;51.984;21.208;2023-09-12T02:23:01;13.10;;;11.60;;
64571;SDS011;51155;51.984;21.208;2023-09-12T02:25:33;13.70;;;12.10;;
64571;SDS011;51155;51.984;21.208;2023-09-12T02:28:04;13.30;;;11.50;;
64571;SDS011;51155;51.984;21.208;2023-09-12T02:30:39;13.80;;;11.10;;
64571;SDS011;51155;51.984;21.208;2023-09-12T02:33:13;14.40;;;11.50;;
64571;SDS011;51155;51.984;21.208;2023-09-12T02:35:45;15.50;;;11.10;;
64571;SDS011;51155;51.984;21.208;2023-09-12T02:38:17;12.00;;;10.80;;
64571;SDS011;51155;51.984;21.208;2023-09-12T02:40:49;14.20;;;11.30;;
64571;SDS011;51155;51.984;21.208;2023-09-12T02:43:21;12.20;;;10.90;;
64571;SDS011;51155;51.984;21.208;2023-09-12T02:45:53;13.70;;;11.70;;
64571;SDS011;51155;51.984;21.208;2023-09-12T02:48:24;12.50;;;11.00;;
64571;SDS011;51155;51.984;21.208;2023-09-12T02:50:56;12.70;;;11.10;;
64571;SDS011;51155;51.984;21.208;2023-09-12T02:53:28;14.50;;;11.40;;
64571;SDS011;51155;51.984;21.208;2023-09-12T02:55:59;13.50;;;11.80;;
64571;SDS011;51155;51.984;21.208;2023-09-12T02:58:31;13.30;;;11.30;;
64571;SDS011;51155;51.984;21.208;2023-09-12T03:01:03;13.00;;;11.50;;
64571;SDS011;51155;51.984;21.208;2023-09-12T03:03:37;13.10;;;11.50;;
64571;SDS011;51155;51.984;21.208;2023-09-12T03:06:09;12.60;;;11.20;;
64571;SDS011;51155;51.984;21.208;2023-09-12T03:08:43;12.40;;;11.10;;
64571;SDS011;51155;51.984;21.208;2023-09-12T03:11:15;12.20;;;10.90;;
64571;SDS011;51155;51.984;21.208;2023-09-12T03:13:47;13.20;;;10.40;;
64571;SDS011;51155;51.984;21.208;2023-09-12T03:16:18;14.60;;;11.20;;
64571;SDS011;51155;51.984;21.208;2023-09-12T03:18:50;14.80;;;11.90;;
64571;SDS011;51155;51.984;21.208;2023-09-12T03:21:23;14.90;;;11.20;;
64571;SDS011;51155;51.984;21.208;2023-09-12T03:23:55;12.90;;;11.60;;
64571;SDS011;51155;51.984;21.208;2023-09-12T03:26:27;12.30;;;11.00;;
64571;SDS011;51155;51.984;21.208;2023-09-12T03:28:58;11.20;;;10.00;;
64571;SDS011;51155;51.984;21.208;2023-09-12T03:31:30;13.50;;;12.00;;
64571;SDS011;51155;51.984;21.208;2023-09-12T03:34:02;11.60;;;10.40;;
64571;SDS011;51155;51.984;21.208;2023-09-12T03:36:34;13.20;;;11.40;;
64571;SDS011;51155;51.984;21.208;2023-09-12T03:39:06;12.80;;;11.50;;
64571;SDS011;51155;51.984;21.208;2023-09-12T03:41:40;13.10;;;10.60;;
64571;SDS011;51155;51.984;21.208;2023-09-12T03:44:12;13.70;;;11.60;;
64571;SDS011;51155;51.984;21.208;2023-09-12T03:46:44;14.40;;;11.50;;
64571;SDS011;51155;51.984;21.208;2023-09-12T03:49:16;13.30;;;11.80;;
64571;SDS011;51155;51.984;21.208;2023-09-12T03:51:48;13.50;;;11.10;;
64571;SDS011;51155;51.984;21.208;2023-09-12T03:54:19;12.80;;;10.90;;
64571;SDS011;51155;51.984;21.208;2023-09-12T03:56:51;13.90;;;11.50;;
64571;SDS011;51155;51.984;21.208;2023-09-12T03:59:23;13.00;;;11.30;;
64571;SDS011;51155;51.984;21.208;2023-09-12T04:01:55;13.00;;;11.60;;
64571;SDS011;51155;51.984;21.208;2023-09-12T04:04:26;12.90;;;11.60;;
64571;SDS011;51155;51.984;21.208;2023-09-12T04:06:58;13.50;;;11.20;;
64571;SDS011;51155;51.984;21.208;2023-09-12T04:09:30;14.20;;;12.20;;
64571;SDS011;51155;51.984;21.208;2023-09-12T04:12:02;13.20;;;11.80;;
64571;SDS011;51155;51.984;21.208;2023-09-12T04:14:34;12.70;;;10.80;;
64571;SDS011;51155;51.984;21.208;2023-09-12T04:17:05;13.50;;;11.40;;
64571;SDS011;51155;51.984;21.208;2023-09-12T04:19:40;14.70;;;11.60;;
64571;SDS011;51155;51.984;21.208;2023-09-12T04:22:12;13.40;;;11.90;;
64571;SDS011;51155;51.984;21.208;2023-09-12T04:24:44;13.30;;;11.20;;
64571;SDS011;51155;51.984;21.208;2023-09-12T04:27:15;12.50;;;11.20;;
64571;SDS011;51155;51.984;21.208;2023-09-12T04:29:47;12.60;;;11.30;;
64571;SDS011;51155;51.984;21.208;2023-09-12T04:32:19;13.20;;;11.30;;
64571;SDS011;51155;51.984;21.208;2023-09-12T04:34:56;12.30;;;11.00;;
64571;SDS011;51155;51.984;21.208;2023-09-12T04:37:27;11.90;;;10.70;;
64571;SDS011;51155;51.984;21.208;2023-09-12T04:39:59;12.70;;;11.30;;
64571;SDS011;51155;51.984;21.208;2023-09-12T04:42:31;13.20;;;11.00;;
64571;SDS011;51155;51.984;21.208;2023-09-12T04:45:03;13.00;;;11.60;;
64571;SDS011;51155;51.984;21.208;2023-09-12T04:47:34;12.60;;;11.20;;
64571;SDS011;51155;51.984;21.208;2023-09-12T04:50:07;12.30;;;11.00;;
64571;SDS011;51155;51.984;21.208;2023-09-12T04:52:39;12.60;;;11.30;;
64571;SDS011;51155;51.984;21.208;2023-09-12T04:55:10;12.10;;;10.70;;
64571;SDS011;51155;51.984;21.208;2023-09-12T04:57:42;13.60;;;11.20;;
64571;SDS011;51155;51.984;21.208;2023-09-12T05:00:14;12.90;;;11.10;;
64571;SDS011;51155;51.984;21.208;2023-09-12T05:02:45;12.60;;;11.10;;
64571;SDS011;51155;51.984;21.208;2023-09-12T05:05:17;14.40;;;10.40;;
64571;SDS011;51155;51.984;21.208;2023-09-12T05:07:49;15.20;;;11.80;;
64571;SDS011;51155;51.984;21.208;2023-09-12T05:10:22;11.80;;;10.60;;
64571;SDS011;51155;51.984;21.208;2023-09-12T05:12:54;12.10;;;10.90;;
64571;SDS011;51155;51.984;21.208;2023-09-12T05:15:26;12.50;;;11.20;;
64571;SDS011;51155;51.984;21.208;2023-09-12T05:17:58;12.40;;;11.10;;
64571;SDS011;51155;51.984;21.208;2023-09-12T05:20:29;13.50;;;11.40;;
64571;SDS011;51155;51.984;21.208;2023-09-12T05:23:01;12.20;;;10.90;;
64571;SDS011;51155;51.984;21.208;2023-09-12T05:25:33;12.20;;;10.90;;
64571;SDS011;51155;51.984;21.208;2023-09-12T05:28:05;12.60;;;10.60;;
64571;SDS011;51155;51.984;21.208;2023-09-12T05:30:36;11.70;;;10.50;;
64571;SDS011;51155;51.984;21.208;2023-09-12T05:33:08;12.30;;;11.00;;
64571;SDS011;51155;51.984;21.208;2023-09-12T05:35:40;11.70;;;10.50;;
64571;SDS011;51155;51.984;21.208;2023-09-12T05:38:12;12.30;;;10.90;;
64571;SDS011;51155;51.984;21.208;2023-09-12T05:40:44;12.10;;;10.80;;
64571;SDS011;51155;51.984;21.208;2023-09-12T05:43:16;12.40;;;11.10;;
64571;SDS011;51155;51.984;21.208;2023-09-12T05:45:48;13.50;;;11.50;;
64571;SDS011;51155;51.984;21.208;2023-09-12T05:48:20;13.10;;;11.40;;
64571;SDS011;51155;51.984;21.208;2023-09-12T05:50:52;12.40;;;10.20;;
64571;SDS011;51155;51.984;21.208;2023-09-12T05:53:24;12.10;;;10.80;;
64571;SDS011;51155;51.984;21.208;2023-09-12T05:55:56;11.90;;;10.60;;
64571;SDS011;51155;51.984;21.208;2023-09-12T05:58:28;12.90;;;10.90;;
64571;SDS011;51155;51.984;21.208;2023-09-12T06:00:59;12.50;;;11.20;;
64571;SDS011;51155;51.984;21.208;2023-09-12T06:03:31;12.80;;;10.90;;
64571;SDS011;51155;51.984;21.208;2023-09-12T06:06:03;11.20;;;10.00;;
64571;SDS011;51155;51.984;21.208;2023-09-12T06:08:35;12.50;;;11.10;;
64571;SDS011;51155;51.984;21.208;2023-09-12T06:11:07;12.70;;;10.70;;
64571;SDS011;51155;51.984;21.208;2023-09-12T06:13:38;12.80;;;11.10;;
64571;SDS011;51155;51.984;21.208;2023-09-12T06:16:10;12.70;;;11.00;;
64571;SDS011;51155;51.984;21.208;2023-09-12T06:18:42;12.30;;;10.90;;
64571;SDS011;51155;51.984;21.208;2023-09-12T06:21:14;12.20;;;10.90;;
64571;SDS011;51155;51.984;21.208;2023-09-12T06:23:46;13.30;;;11.90;;
64571;SDS011;51155;51.984;21.208;2023-09-12T06:26:17;11.70;;;10.50;;
64571;SDS011;51155;51.984;21.208;2023-09-12T06:28:49;12.90;;;11.50;;
64571;SDS011;51155;51.984;21.208;2023-09-12T06:31:20;12.60;;;11.30;;
64571;SDS011;51155;51.984;21.208;2023-09-12T06:33:52;12.40;;;10.90;;
64571;SDS011;51155;51.984;21.208;2023-09-12T06:36:25;12.70;;;11.30;;
64571;SDS011;51155;51.984;21.208;2023-09-12T06:38:57;13.10;;;11.80;;
64571;SDS011;51155;51.984;21.208;2023-09-12T06:41:29;13.90;;;12.00;;
64571;SDS011;51155;51.984;21.208;2023-09-12T06:44:01;13.70;;;12.30;;
64571;SDS011;51155;51.984;21.208;2023-09-12T06:46:34;12.80;;;11.50;;
64571;SDS011;51155;51.984;21.208;2023-09-12T06:49:09;13.10;;;11.80;;
64571;SDS011;51155;51.984;21.208;2023-09-12T06:51:41;13.60;;;12.30;;
64571;SDS011;51155;51.984;21.208;2023-09-12T06:54:12;14.40;;;11.80;;
64571;SDS011;51155;51.984;21.208;2023-09-12T06:56:44;12.90;;;11.40;;
64571;SDS011;51155;51.984;21.208;2023-09-12T06:59:16;12.80;;;11.50;;
64571;SDS011;51155;51.984;21.208;2023-09-12T07:01:47;14.00;;;11.60;;
64571;SDS011;51155;51.984;21.208;2023-09-12T07:04:19;13.60;;;12.30;;
64571;SDS011;51155;51.984;21.208;2023-09-12T07:06:51;12.80;;;11.50;;
64571;SDS011;51155;51.984;21.208;2023-09-12T07:09:23;12.80;;;11.40;;
64571;SDS011;51155;51.984;21.208;2023-09-12T07:14:27;12.30;;;11.00;;
64571;SDS011;51155;51.984;21.208;2023-09-12T07:16:58;13.20;;;11.80;;
64571;SDS011;51155;51.984;21.208;2023-09-12T07:19:30;12.60;;;11.40;;
64571;SDS011;51155;51.984;21.208;2023-09-12T07:22:02;15.30;;;11.90;;
64571;SDS011;51155;51.984;21.208;2023-09-12T07:24:33;12.70;;;11.00;;
64571;SDS011;51155;51.984;21.208;2023-09-12T07:27:05;13.30;;;11.50;;
64571;SDS011;51155;51.984;21.208;2023-09-12T07:29:37;12.00;;;10.80;;
64571;SDS011;51155;51.984;21.208;2023-09-12T07:32:09;13.20;;;11.80;;
64571;SDS011;51155;51.984;21.208;2023-09-12T07:34:41;12.30;;;11.10;;
64571;SDS011;51155;51.984;21.208;2023-09-12T07:37:16;13.20;;;11.60;;
64571;SDS011;51155;51.984;21.208;2023-09-12T07:39:48;13.80;;;12.40;;
64571;SDS011;51155;51.984;21.208;2023-09-12T07:42:23;13.70;;;11.90;;
64571;SDS011;51155;51.984;21.208;2023-09-12T07:44:55;13.40;;;12.00;;
64571;SDS011;51155;51.984;21.208;2023-09-12T07:47:27;12.50;;;11.30;;
64571;SDS011;51155;51.984;21.208;2023-09-12T07:49:59;13.20;;;11.90;;
64571;SDS011;51155;51.984;21.208;2023-09-12T07:52:32;12.30;;;11.10;;
64571;SDS011;51155;51.984;21.208;2023-09-12T07:55:04;13.40;;;11.90;;
64571;SDS011;51155;51.984;21.208;2023-09-12T07:57:36;12.30;;;11.10;;
64571;SDS011;51155;51.984;21.208;2023-09-12T08:00:08;12.40;;;11.20;;
64571;SDS011;51155;51.984;21.208;2023-09-12T08:02:43;12.20;;;10.90;;
64571;SDS011;51155;51.984;21.208;2023-09-12T08:05:15;13.10;;;11.40;;
64571;SDS011;51155;51.984;21.208;2023-09-12T08:07:47;12.00;;;10.80;;
64571;SDS011;51155;51.984;21.208;2023-09-12T08:10:18;12.20;;;11.00;;
64571;SDS011;51155;51.984;21.208;2023-09-12T08:12:50;12.40;;;11.00;;
64571;SDS011;51155;51.984;21.208;2023-09-12T08:15:22;12.80;;;11.50;;
64571;SDS011;51155;51.984;21.208;2023-09-12T08:17:55;11.90;;;10.70;;
64571;SDS011;51155;51.984;21.208;2023-09-12T08:20:27;14.50;;;10.80;;
64571;SDS011;51155;51.984;21.208;2023-09-12T08:22:58;12.30;;;11.10;;
64571;SDS011;51155;51.984;21.208;2023-09-12T08:25:30;14.00;;;11.50;;
64571;SDS011;51155;51.984;21.208;2023-09-12T08:28:02;12.30;;;11.10;;
64571;SDS011;51155;51.984;21.208;2023-09-12T08:30:33;11.80;;;10.60;;
64571;SDS011;51155;51.984;21.208;2023-09-12T08:33:05;12.10;;;10.90;;
64571;SDS011;51155;51.984;21.208;2023-09-12T08:35:38;11.40;;;10.30;;
64571;SDS011;51155;51.984;21.208;2023-09-12T08:38:10;11.70;;;10.50;;
64571;SDS011;51155;51.984;21.208;2023-09-12T08:40:48;12.20;;;10.90;;
64571;SDS011;51155;51.984;21.208;2023-09-12T08:43:20;11.40;;;10.10;;
64571;SDS011;51155;51.984;21.208;2023-09-12T08:45:52;11.90;;;10.40;;
64571;SDS011;51155;51.984;21.208;2023-09-12T08:48:24;10.50;;;9.40;;
64571;SDS011;51155;51.984;21.208;2023-09-12T08:50:56;11.20;;;10.10;;
64571;SDS011;51155;51.984;21.208;2023-09-12T08:53:28;11.00;;;9.80;;
64571;SDS011;51155;51.984;21.208;2023-09-12T08:56:00;11.30;;;10.00;;
64571;SDS011;51155;51.984;21.208;2023-09-12T08:58:35;11.20;;;10.10;;
64571;SDS011;51155;51.984;21.208;2023-09-12T09:01:06;11.60;;;10.40;;
64571;SDS011;51155;51.984;21.208;2023-09-12T09:06:12;10.10;;;9.10;;
64571;SDS011;51155;51.984;21.208;2023-09-12T09:08:44;11.00;;;9.70;;
64571;SDS011;51155;51.984;21.208;2023-09-12T09:11:17;11.70;;;10.60;;
64571;SDS011;51155;51.984;21.208;2023-09-12T09:13:48;11.30;;;10.20;;
64571;SDS011;51155;51.984;21.208;2023-09-12T09:16:20;10.90;;;9.40;;
64571;SDS011;51155;51.984;21.208;2023-09-12T09:19:00;10.90;;;9.80;;
64571;SDS011;51155;51.984;21.208;2023-09-12T09:21:33;11.00;;;9.90;;
64571;SDS011;51155;51.984;21.208;2023-09-12T09:24:08;11.70;;;10.50;;
64571;SDS011;51155;51.984;21.208;2023-09-12T09:26:47;10.30;;;9.20;;
64571;SDS011;51155;51.984;21.208;2023-09-12T09:29:20;10.60;;;9.60;;
64571;SDS011;51155;51.984;21.208;2023-09-12T09:31:52;10.60;;;9.50;;
64571;SDS011;51155;51.984;21.208;2023-09-12T09:34:24;10.30;;;9.40;;
64571;SDS011;51155;51.984;21.208;2023-09-12T09:36:56;11.50;;;9.70;;
64571;SDS011;51155;51.984;21.208;2023-09-12T09:39:28;10.20;;;9.20;;
64571;SDS011;51155;51.984;21.208;2023-09-12T09:42:00;9.90;;;8.90;;
64571;SDS011;51155;51.984;21.208;2023-09-12T09:44:32;10.60;;;9.50;;
64571;SDS011;51155;51.984;21.208;2023-09-12T09:47:03;10.20;;;9.30;;
64571;SDS011;51155;51.984;21.208;2023-09-12T09:49:37;10.20;;;9.10;;
64571;SDS011;51155;51.984;21.208;2023-09-12T09:52:09;10.20;;;9.20;;
64571;SDS011;51155;51.984;21.208;2023-09-12T09:54:44;10.20;;;9.20;;
64571;SDS011;51155;51.984;21.208;2023-09-12T09:57:17;10.20;;;9.10;;
64571;SDS011;51155;51.984;21.208;2023-09-12T09:59:49;9.90;;;8.90;;
64571;SDS011;51155;51.984;21.208;2023-09-12T10:02:24;9.40;;;8.50;;
64571;SDS011;51155;51.984;21.208;2023-09-12T10:04:57;10.30;;;9.30;;
64571;SDS011;51155;51.984;21.208;2023-09-12T10:07:32;10.00;;;9.10;;
64571;SDS011;51155;51.984;21.208;2023-09-12T10:10:05;9.50;;;8.60;;
64571;SDS011;51155;51.984;21.208;2023-09-12T10:12:42;9.00;;;8.20;;
64571;SDS011;51155;51.984;21.208;2023-09-12T10:15:19;10.30;;;9.30;;
64571;SDS011;51155;51.984;21.208;2023-09-12T10:17:59;9.70;;;8.80;;
64571;SDS011;51155;51.984;21.208;2023-09-12T10:20:53;9.10;;;8.20;;
64571;SDS011;51155;51.984;21.208;2023-09-12T10:23:39;10.00;;;8.80;;
64571;SDS011;51155;51.984;21.208;2023-09-12T10:26:14;9.10;;;8.20;;
64571;SDS011;51155;51.984;21.208;2023-09-12T10:28:46;8.80;;;8.10;;
64571;SDS011;51155;51.984;21.208;2023-09-12T10:31:18;9.10;;;8.20;;
64571;SDS011;51155;51.984;21.208;2023-09-12T10:33:50;9.60;;;8.70;;
64571;SDS011;51155;51.984;21.208;2023-09-12T10:36:22;9.50;;;8.60;;
64571;SDS011;51155;51.984;21.208;2023-09-12T10:38:58;8.50;;;7.70;;
64571;SDS011;51155;51.984;21.208;2023-09-12T10:41:30;9.40;;;8.40;;
64571;SDS011;51155;51.984;21.208;2023-09-12T10:44:10;8.70;;;7.90;;
64571;SDS011;51155;51.984;21.208;2023-09-12T10:46:42;9.70;;;8.80;;
64571;SDS011;51155;51.984;21.208;2023-09-12T10:49:15;9.10;;;8.20;;
64571;SDS011;51155;51.984;21.208;2023-09-12T10:51:47;9.10;;;8.30;;
64571;SDS011;51155;51.984;21.208;2023-09-12T10:54:35;8.60;;;7.80;;
64571;SDS011;51155;51.984;21.208;2023-09-12T10:57:10;8.80;;;7.90;;
64571;SDS011;51155;51.984;21.208;2023-09-12T11:02:42;9.40;;;8.50;;
64571;SDS011;51155;51.984;21.208;2023-09-12T11:08:00;8.60;;;7.80;;
64571;SDS011;51155;51.984;21.208;2023-09-12T11:10:32;8.90;;;8.10;;
64571;SDS011;51155;51.984;21.208;2023-09-12T11:13:04;9.10;;;8.30;;
64571;SDS011;51155;51.984;21.208;2023-09-12T11:15:35;9.30;;;8.40;;
64571;SDS011;51155;51.984;21.208;2023-09-12T11:18:10;9.20;;;8.30;;
64571;SDS011;51155;51.984;21.208;2023-09-12T11:23:29;8.10;;;7.30;;
64571;SDS011;51155;51.984;21.208;2023-09-12T11:26:06;8.10;;;7.30;;
64571;SDS011;51155;51.984;21.208;2023-09-12T11:28:38;8.40;;;7.70;;
64571;SDS011;51155;51.984;21.208;2023-09-12T11:33:42;7.60;;;7.00;;
64571;SDS011;51155;51.984;21.208;2023-09-12T11:36:14;8.60;;;7.80;;
64571;SDS011;51155;51.984;21.208;2023-09-12T11:38:49;8.20;;;7.50;;
64571;SDS011;51155;51.984;21.208;2023-09-12T11:41:41;8.10;;;7.30;;
64571;SDS011;51155;51.984;21.208;2023-09-12T11:44:13;8.80;;;8.00;;
64571;SDS011;51155;51.984;21.208;2023-09-12T11:46:49;8.00;;;7.30;;
64571;SDS011;51155;51.984;21.208;2023-09-12T11:49:21;8.10;;;7.40;;
64571;SDS011;51155;51.984;21.208;2023-09-12T11:51:53;8.60;;;7.80;;
64571;SDS011;51155;51.984;21.208;2023-09-12T11:54:25;8.80;;;8.00;;
64571;SDS011;51155;51.984;21.208;2023-09-12T11:56:57;8.30;;;7.50;;
64571;SDS011;51155;51.984;21.208;2023-09-12T11:59:31;8.10;;;7.30;;
64571;SDS011;51155;51.984;21.208;2023-09-12T12:02:08;8.10;;;7.40;;
64571;SDS011;51155;51.984;21.208;2023-09-12T12:04:40;8.30;;;7.50;;
64571;SDS011;51155;51.984;21.208;2023-09-12T12:07:12;8.00;;;7.30;;
64571;SDS011;51155;51.984;21.208;2023-09-12T12:09:44;8.50;;;7.70;;
64571;SDS011;51155;51.984;21.208;2023-09-12T12:12:16;8.60;;;7.70;;
64571;SDS011;51155;51.984;21.208;2023-09-12T12:14:47;7.50;;;6.80;;
64571;SDS011;51155;51.984;21.208;2023-09-12T12:17:19;8.40;;;7.60;;
64571;SDS011;51155;51.984;21.208;2023-09-12T12:19:51;8.70;;;7.90;;
64571;SDS011;51155;51.984;21.208;2023-09-12T12:22:24;7.90;;;7.20;;
64571;SDS011;51155;51.984;21.208;2023-09-12T12:24:57;8.80;;;7.90;;
64571;SDS011;51155;51.984;21.208;2023-09-12T12:27:37;7.60;;;6.90;;
64571;SDS011;51155;51.984;21.208;2023-09-12T12:30:13;8.10;;;7.40;;
64571;SDS011;51155;51.984;21.208;2023-09-12T12:32:46;8.30;;;7.50;;
64571;SDS011;51155;51.984;21.208;2023-09-12T12:35:23;7.50;;;6.80;;
64571;SDS011;51155;51.984;21.208;2023-09-12T12:38:14;8.20;;;7.50;;
64571;SDS011;51155;51.984;21.208;2023-09-12T12:40:47;8.10;;;7.40;;
64571;SDS011;51155;51.984;21.208;2023-09-12T12:43:20;8.20;;;7.40;;
64571;SDS011;51155;51.984;21.208;2023-09-12T12:45:57;8.40;;;7.60;;
64571;SDS011;51155;51.984;21.208;2023-09-12T12:48:34;8.50;;;7.80;;
64571;SDS011;51155;51.984;21.208;2023-09-12T12:51:17;7.70;;;7.00;;
64571;SDS011;51155;51.984;21.208;2023-09-12T12:53:53;8.20;;;7.40;;
64571;SDS011;51155;51.984;21.208;2023-09-12T12:56:28;7.60;;;6.90;;
64571;SDS011;51155;51.984;21.208;2023-09-12T12:59:04;7.30;;;6.70;;
64571;SDS011;51155;51.984;21.208;2023-09-12T13:01:38;7.70;;;7.00;;
64571;SDS011;51155;51.984;21.208;2023-09-12T13:06:42;7.40;;;6.70;;
64571;SDS011;51155;51.984;21.208;2023-09-12T13:09:14;8.00;;;7.20;;
64571;SDS011;51155;51.984;21.208;2023-09-12T13:11:48;7.90;;;7.10;;
64571;SDS011;51155;51.984;21.208;2023-09-12T13:14:19;8.50;;;7.60;;
64571;SDS011;51155;51.984;21.208;2023-09-12T13:16:51;8.40;;;7.60;;
64571;SDS011;51155;51.984;21.208;2023-09-12T13:19:23;7.90;;;7.20;;
64571;SDS011;51155;51.984;21.208;2023-09-12T13:21:55;7.30;;;6.60;;
64571;SDS011;51155;51.984;21.208;2023-09-12T13:24:27;7.50;;;6.90;;
64571;SDS011;51155;51.984;21.208;2023-09-12T13:26:59;8.10;;;7.30;;
64571;SDS011;51155;51.984;21.208;2023-09-12T13:29:30;7.90;;;7.20;;
64571;SDS011;51155;51.984;21.208;2023-09-12T13:32:02;7.90;;;7.20;;
64571;SDS011;51155;51.984;21.208;2023-09-12T13:34:34;8.60;;;7.70;;
64571;SDS011;51155;51.984;21.208;2023-09-12T13:39:43;7.90;;;7.20;;
64571;SDS011;51155;51.984;21.208;2023-09-12T13:42:20;8.30;;;7.50;;
64571;SDS011;51155;51.984;21.208;2023-09-12T13:47:24;7.20;;;6.50;;
64571;SDS011;51155;51.984;21.208;2023-09-12T13:49:57;7.60;;;6.90;;
64571;SDS011;51155;51.984;21.208;2023-09-12T13:52:28;8.20;;;7.50;;
64571;SDS011;51155;51.984;21.208;2023-09-12T13:55:01;7.90;;;7.20;;
64571;SDS011;51155;51.984;21.208;2023-09-12T13:57:34;8.20;;;7.50;;
64571;SDS011;51155;51.984;21.208;2023-09-12T14:00:21;8.10;;;7.30;;
64571;SDS011;51155;51.984;21.208;2023-09-12T14:03:06;8.20;;;7.40;;
64571;SDS011;51155;51.984;21.208;2023-09-12T14:05:37;8.50;;;7.50;;
64571;SDS011;51155;51.984;21.208;2023-09-12T14:08:11;8.50;;;7.70;;
64571;SDS011;51155;51.984;21.208;2023-09-12T14:10:43;8.20;;;7.30;;
64571;SDS011;51155;51.984;21.208;2023-09-12T14:13:15;7.40;;;6.80;;
64571;SDS011;51155;51.984;21.208;2023-09-12T14:15:52;8.20;;;7.50;;
64571;SDS011;51155;51.984;21.208;2023-09-12T14:18:26;8.50;;;7.70;;
64571;SDS011;51155;51.984;21.208;2023-09-12T14:21:01;8.40;;;7.60;;
64571;SDS011;51155;51.984;21.208;2023-09-12T14:23:35;8.40;;;7.70;;
64571;SDS011;51155;51.984;21.208;2023-09-12T14:26:07;8.50;;;7.80;;
64571;SDS011;51155;51.984;21.208;2023-09-12T14:28:39;8.70;;;7.90;;
64571;SDS011;51155;51.984;21.208;2023-09-12T14:31:11;8.90;;;8.00;;
64571;SDS011;51155;51.984;21.208;2023-09-12T14:33:45;8.90;;;8.10;;
64571;SDS011;51155;51.984;21.208;2023-09-12T14:36:18;8.40;;;7.60;;
64571;SDS011;51155;51.984;21.208;2023-09-12T14:38:50;8.50;;;7.70;;
64571;SDS011;51155;51.984;21.208;2023-09-12T14:41:22;9.10;;;8.20;;
64571;SDS011;51155;51.984;21.208;2023-09-12T14:43:53;9.00;;;8.20;;
64571;SDS011;51155;51.984;21.208;2023-09-12T14:46:25;8.80;;;8.10;;
64571;SDS011;51155;51.984;21.208;2023-09-12T14:48:57;9.30;;;8.30;;
64571;SDS011;51155;51.984;21.208;2023-09-12T14:51:33;8.90;;;8.10;;
64571;SDS011;51155;51.984;21.208;2023-09-12T14:56:37;8.50;;;7.70;;
64571;SDS011;51155;51.984;21.208;2023-09-12T14:59:08;9.00;;;8.10;;
64571;SDS011;51155;51.984;21.208;2023-09-12T15:01:40;9.30;;;8.50;;
64571;SDS011;51155;51.984;21.208;2023-09-12T15:04:12;8.60;;;7.80;;
64571;SDS011;51155;51.984;21.208;2023-09-12T15:06:44;9.10;;;8.20;;
64571;SDS011;51155;51.984;21.208;2023-09-12T15:09:16;8.90;;;8.00;;
64571;SDS011;51155;51.984;21.208;2023-09-12T15:11:48;9.00;;;8.20;;
64571;SDS011;51155;51.984;21.208;2023-09-12T15:14:20;8.70;;;8.00;;
64571;SDS011;51155;51.984;21.208;2023-09-12T15:16:52;9.00;;;8.20;;
64571;SDS011;51155;51.984;21.208;2023-09-12T15:19:24;8.60;;;7.80;;
64571;SDS011;51155;51.984;21.208;2023-09-12T15:21:56;8.70;;;7.90;;
64571;SDS011;51155;51.984;21.208;2023-09-12T15:24:27;8.70;;;7.80;;
64571;SDS011;51155;51.984;21.208;2023-09-12T15:26:59;9.00;;;8.20;;
64571;SDS011;51155;51.984;21.208;2023-09-12T15:29:31;8.40;;;7.50;;